sensor_id;sensor_type;location;lat;lon;timestamp;pressure;altitude;pressure_sealevel;temperature;humidity
21234;BME280;10774;42.178;26.578;2023-03-14T00:01:10;100538.22;;;2.15;74.81
21234;BME280;10774;42.178;26.578;2023-03-14T00:03:36;100531.91;;;2.22;74.87
21234;BME280;10774;42.178;26.578;2023-03-14T00:06:03;100539.38;;;2.02;74.08
21234;BME280;10774;42.178;26.578;2023-03-14T00:08:28;100530.50;;;2.06;76.11
21234;BME280;10774;42.178;26.578;2023-03-14T00:10:54;100525.03;;;2.14;75.12
21234;BME280;10774;42.178;26.578;2023-03-14T00:13:19;100529.09;;;1.87;77.11
21234;BME280;10774;42.178;26.578;2023-03-14T00:15:45;100527.06;;;1.53;80.89
21234;BME280;10774;42.178;26.578;2023-03-14T00:18:10;100515.13;;;1.78;81.32
21234;BME280;10774;42.178;26.578;2023-03-14T00:20:35;100522.63;;;1.55;81.03
21234;BME280;10774;42.178;26.578;2023-03-14T00:23:01;100515.09;;;1.80;80.11
21234;BME280;10774;42.178;26.578;2023-03-14T00:25:27;100510.91;;;1.68;80.22
21234;BME280;10774;42.178;26.578;2023-03-14T00:27:53;100512.34;;;1.84;79.65
21234;BME280;10774;42.178;26.578;2023-03-14T00:30:19;100512.00;;;1.56;79.55
21234;BME280;10774;42.178;26.578;2023-03-14T00:32:44;100493.75;;;1.43;80.46
21234;BME280;10774;42.178;26.578;2023-03-14T00:35:09;100499.44;;;1.69;80.18
21234;BME280;10774;42.178;26.578;2023-03-14T00:37:35;100499.47;;;1.66;79.23
21234;BME280;10774;42.178;26.578;2023-03-14T00:40:00;100488.00;;;1.67;78.95
21234;BME280;10774;42.178;26.578;2023-03-14T00:42:26;100481.75;;;1.71;78.79
21234;BME280;10774;42.178;26.578;2023-03-14T00:44:51;100481.00;;;1.65;79.02
21234;BME280;10774;42.178;26.578;2023-03-14T00:47:17;100467.78;;;1.63;80.16
21234;BME280;10774;42.178;26.578;2023-03-14T00:49:42;100471.41;;;1.59;81.08
21234;BME280;10774;42.178;26.578;2023-03-14T00:52:09;100462.06;;;1.40;81.54
21234;BME280;10774;42.178;26.578;2023-03-14T00:54:34;100466.53;;;1.35;82.13
21234;BME280;10774;42.178;26.578;2023-03-14T00:57:00;100464.34;;;1.58;81.56
21234;BME280;10774;42.178;26.578;2023-03-14T00:59:25;100458.31;;;1.51;80.19
21234;BME280;10774;42.178;26.578;2023-03-14T01:01:51;100460.13;;;1.49;81.04
21234;BME280;10774;42.178;26.578;2023-03-14T01:04:16;100450.16;;;1.64;80.46
21234;BME280;10774;42.178;26.578;2023-03-14T01:06:42;100434.97;;;1.25;81.04
21234;BME280;10774;42.178;26.578;2023-03-14T01:09:07;100454.50;;;1.18;82.65
21234;BME280;10774;42.178;26.578;2023-03-14T01:11:34;100468.25;;;1.39;82.32
21234;BME280;10774;42.178;26.578;2023-03-14T01:14:01;100457.59;;;1.43;82.39
21234;BME280;10774;42.178;26.578;2023-03-14T01:16:28;100475.75;;;1.12;82.91
21234;BME280;10774;42.178;26.578;2023-03-14T01:18:54;100481.53;;;0.20;88.94
21234;BME280;10774;42.178;26.578;2023-03-14T01:21:25;100483.53;;;-0.77;96.21
21234;BME280;10774;42.178;26.578;2023-03-14T01:23:52;100480.72;;;-0.64;98.75
21234;BME280;10774;42.178;26.578;2023-03-14T01:26:19;100469.44;;;-0.76;100.00
21234;BME280;10774;42.178;26.578;2023-03-14T01:28:46;100474.34;;;-1.38;100.00
21234;BME280;10774;42.178;26.578;2023-03-14T01:31:12;100482.09;;;-1.21;100.00
21234;BME280;10774;42.178;26.578;2023-03-14T01:33:38;100476.53;;;-0.82;100.00
21234;BME280;10774;42.178;26.578;2023-03-14T01:36:04;100449.59;;;-1.17;100.00
21234;BME280;10774;42.178;26.578;2023-03-14T01:38:32;100475.03;;;-1.10;100.00
21234;BME280;10774;42.178;26.578;2023-03-14T01:40:58;100483.09;;;-1.35;100.00
21234;BME280;10774;42.178;26.578;2023-03-14T01:43:24;100467.72;;;-0.81;100.00
21234;BME280;10774;42.178;26.578;2023-03-14T01:51:21;100464.31;;;-0.09;100.00
21234;BME280;10774;42.178;26.578;2023-03-14T01:53:51;100453.53;;;0.08;98.44
21234;BME280;10774;42.178;26.578;2023-03-14T01:56:19;100473.41;;;0.35;96.57
21234;BME280;10774;42.178;26.578;2023-03-14T01:58:47;100480.03;;;0.65;94.93
21234;BME280;10774;42.178;26.578;2023-03-14T02:01:17;100459.91;;;0.58;93.51
21234;BME280;10774;42.178;26.578;2023-03-14T02:03:49;100473.81;;;0.69;93.10
21234;BME280;10774;42.178;26.578;2023-03-14T02:06:17;100469.72;;;0.47;92.65
21234;BME280;10774;42.178;26.578;2023-03-14T02:08:44;100483.28;;;0.22;94.52
21234;BME280;10774;42.178;26.578;2023-03-14T02:11:14;100465.38;;;0.44;92.83
21234;BME280;10774;42.178;26.578;2023-03-14T02:13:39;100479.75;;;0.23;93.69
21234;BME280;10774;42.178;26.578;2023-03-14T02:16:05;100477.56;;;0.55;93.36
21234;BME280;10774;42.178;26.578;2023-03-14T02:18:31;100457.25;;;0.58;91.87
21234;BME280;10774;42.178;26.578;2023-03-14T02:26:08;100439.13;;;0.91;91.14
21234;BME280;10774;42.178;26.578;2023-03-14T02:28:35;100428.38;;;1.00;90.26
21234;BME280;10774;42.178;26.578;2023-03-14T02:31:01;100456.91;;;1.32;88.47
21234;BME280;10774;42.178;26.578;2023-03-14T02:33:26;100443.06;;;1.18;88.46
21234;BME280;10774;42.178;26.578;2023-03-14T02:35:56;100442.22;;;1.14;87.32
21234;BME280;10774;42.178;26.578;2023-03-14T02:38:44;100449.66;;;0.92;87.69
21234;BME280;10774;42.178;26.578;2023-03-14T02:41:11;100440.50;;;0.59;88.30
21234;BME280;10774;42.178;26.578;2023-03-14T02:43:36;100439.22;;;0.28;89.13
21234;BME280;10774;42.178;26.578;2023-03-14T02:46:04;100440.75;;;0.42;89.07
21234;BME280;10774;42.178;26.578;2023-03-14T02:49:02;100456.44;;;0.51;88.55
21234;BME280;10774;42.178;26.578;2023-03-14T02:51:28;100466.50;;;0.27;89.44
21234;BME280;10774;42.178;26.578;2023-03-14T02:53:54;100454.34;;;0.13;90.24
21234;BME280;10774;42.178;26.578;2023-03-14T02:56:20;100442.09;;;0.09;90.39
21234;BME280;10774;42.178;26.578;2023-03-14T02:58:45;100461.09;;;0.36;90.16
21234;BME280;10774;42.178;26.578;2023-03-14T03:01:11;100452.19;;;0.43;89.94
21234;BME280;10774;42.178;26.578;2023-03-14T03:03:36;100463.63;;;-0.24;91.75
21234;BME280;10774;42.178;26.578;2023-03-14T03:06:02;100462.50;;;-0.04;92.50
21234;BME280;10774;42.178;26.578;2023-03-14T03:08:28;100464.25;;;-0.03;92.44
21234;BME280;10774;42.178;26.578;2023-03-14T03:10:54;100450.00;;;0.11;92.70
21234;BME280;10774;42.178;26.578;2023-03-14T03:13:19;100436.91;;;0.03;92.43
21234;BME280;10774;42.178;26.578;2023-03-14T03:15:45;100460.41;;;0.21;92.45
21234;BME280;10774;42.178;26.578;2023-03-14T03:18:11;100452.91;;;-0.12;92.02
21234;BME280;10774;42.178;26.578;2023-03-14T03:20:37;100452.16;;;-0.22;93.61
21234;BME280;10774;42.178;26.578;2023-03-14T03:23:02;100437.19;;;-0.21;93.63
21234;BME280;10774;42.178;26.578;2023-03-14T03:25:28;100444.41;;;-0.36;93.98
21234;BME280;10774;42.178;26.578;2023-03-14T03:27:54;100443.44;;;-0.25;94.83
21234;BME280;10774;42.178;26.578;2023-03-14T03:30:20;100429.31;;;-0.23;94.24
21234;BME280;10774;42.178;26.578;2023-03-14T03:32:45;100432.88;;;-0.25;94.72
21234;BME280;10774;42.178;26.578;2023-03-14T03:35:11;100448.38;;;-0.01;94.14
21234;BME280;10774;42.178;26.578;2023-03-14T03:37:37;100443.81;;;0.13;92.93
21234;BME280;10774;42.178;26.578;2023-03-14T03:40:03;100437.09;;;-0.12;93.48
21234;BME280;10774;42.178;26.578;2023-03-14T03:42:33;100434.41;;;-0.11;94.28
21234;BME280;10774;42.178;26.578;2023-03-14T03:44:59;100442.44;;;-0.18;93.60
21234;BME280;10774;42.178;26.578;2023-03-14T03:47:25;100445.06;;;-0.15;93.13
21234;BME280;10774;42.178;26.578;2023-03-14T03:49:50;100433.69;;;-0.20;92.54
21234;BME280;10774;42.178;26.578;2023-03-14T03:52:16;100442.47;;;-0.21;91.96
21234;BME280;10774;42.178;26.578;2023-03-14T03:54:41;100432.03;;;-0.29;92.39
21234;BME280;10774;42.178;26.578;2023-03-14T03:57:07;100451.34;;;-0.25;92.15
21234;BME280;10774;42.178;26.578;2023-03-14T03:59:32;100433.97;;;-0.45;93.18
21234;BME280;10774;42.178;26.578;2023-03-14T04:01:58;100433.75;;;-0.27;93.58
21234;BME280;10774;42.178;26.578;2023-03-14T04:04:23;100435.19;;;-0.01;92.94
21234;BME280;10774;42.178;26.578;2023-03-14T04:06:49;100420.88;;;0.15;92.17
21234;BME280;10774;42.178;26.578;2023-03-14T04:09:14;100422.69;;;0.13;91.87
21234;BME280;10774;42.178;26.578;2023-03-14T04:11:40;100416.75;;;-0.06;92.78
21234;BME280;10774;42.178;26.578;2023-03-14T04:14:06;100416.63;;;0.05;92.06
21234;BME280;10774;42.178;26.578;2023-03-14T04:16:31;100408.13;;;-0.15;92.20
21234;BME280;10774;42.178;26.578;2023-03-14T04:18:57;100435.16;;;0.02;91.97
21234;BME280;10774;42.178;26.578;2023-03-14T04:21:22;100417.59;;;-0.02;91.49
21234;BME280;10774;42.178;26.578;2023-03-14T04:23:48;100424.50;;;0.08;91.47
21234;BME280;10774;42.178;26.578;2023-03-14T04:26:14;100422.59;;;0.19;91.18
21234;BME280;10774;42.178;26.578;2023-03-14T04:28:39;100418.22;;;0.18;91.09
21234;BME280;10774;42.178;26.578;2023-03-14T04:31:31;100431.63;;;0.03;91.53
21234;BME280;10774;42.178;26.578;2023-03-14T04:33:56;100403.00;;;-0.29;91.43
21234;BME280;10774;42.178;26.578;2023-03-14T04:36:22;100403.13;;;-0.37;92.86
21234;BME280;10774;42.178;26.578;2023-03-14T04:38:47;100403.97;;;-0.35;93.65
21234;BME280;10774;42.178;26.578;2023-03-14T04:41:13;100409.06;;;-0.22;93.44
21234;BME280;10774;42.178;26.578;2023-03-14T04:43:38;100422.03;;;-0.04;93.07
21234;BME280;10774;42.178;26.578;2023-03-14T04:46:04;100427.06;;;0.14;92.49
21234;BME280;10774;42.178;26.578;2023-03-14T04:48:29;100416.84;;;-0.12;93.18
21234;BME280;10774;42.178;26.578;2023-03-14T04:50:55;100417.72;;;-0.11;92.67
21234;BME280;10774;42.178;26.578;2023-03-14T04:53:20;100428.81;;;0.17;91.26
21234;BME280;10774;42.178;26.578;2023-03-14T04:55:53;100426.63;;;-0.18;89.13
21234;BME280;10774;42.178;26.578;2023-03-14T04:58:19;100425.22;;;-0.47;89.90
21234;BME280;10774;42.178;26.578;2023-03-14T05:00:46;100434.81;;;-0.43;89.93
21234;BME280;10774;42.178;26.578;2023-03-14T05:03:11;100442.84;;;-0.52;90.14
21234;BME280;10774;42.178;26.578;2023-03-14T05:05:37;100409.91;;;-0.97;91.98
21234;BME280;10774;42.178;26.578;2023-03-14T05:08:02;100429.91;;;-0.76;93.22
21234;BME280;10774;42.178;26.578;2023-03-14T05:10:28;100435.13;;;-0.72;92.85
21234;BME280;10774;42.178;26.578;2023-03-14T05:12:53;100432.31;;;-0.52;93.25
21234;BME280;10774;42.178;26.578;2023-03-14T05:15:19;100434.13;;;-0.60;92.31
21234;BME280;10774;42.178;26.578;2023-03-14T05:17:44;100440.31;;;-0.64;92.92
21234;BME280;10774;42.178;26.578;2023-03-14T05:20:11;100436.94;;;-0.77;93.58
21234;BME280;10774;42.178;26.578;2023-03-14T05:22:39;100439.38;;;-0.57;92.65
21234;BME280;10774;42.178;26.578;2023-03-14T05:25:05;100436.91;;;-0.74;92.88
21234;BME280;10774;42.178;26.578;2023-03-14T05:27:31;100429.63;;;-1.46;96.45
21234;BME280;10774;42.178;26.578;2023-03-14T05:29:57;100436.53;;;-1.33;97.27
21234;BME280;10774;42.178;26.578;2023-03-14T05:32:22;100431.72;;;-0.82;95.51
21234;BME280;10774;42.178;26.578;2023-03-14T05:34:47;100428.22;;;-0.85;95.25
21234;BME280;10774;42.178;26.578;2023-03-14T05:37:13;100437.25;;;-1.09;96.76
21234;BME280;10774;42.178;26.578;2023-03-14T05:39:38;100429.41;;;-1.18;99.55
21234;BME280;10774;42.178;26.578;2023-03-14T05:42:04;100416.94;;;-0.98;98.94
21234;BME280;10774;42.178;26.578;2023-03-14T05:44:29;100423.25;;;-0.33;97.04
21234;BME280;10774;42.178;26.578;2023-03-14T05:46:55;100428.16;;;-0.02;96.48
21234;BME280;10774;42.178;26.578;2023-03-14T05:49:20;100426.75;;;0.36;94.04
21234;BME280;10774;42.178;26.578;2023-03-14T05:51:45;100441.59;;;1.01;91.41
21234;BME280;10774;42.178;26.578;2023-03-14T05:54:11;100440.38;;;1.19;89.29
21234;BME280;10774;42.178;26.578;2023-03-14T05:56:36;100431.38;;;1.29;88.15
21234;BME280;10774;42.178;26.578;2023-03-14T05:59:02;100418.66;;;1.50;87.04
21234;BME280;10774;42.178;26.578;2023-03-14T06:01:29;100431.38;;;1.29;89.45
21234;BME280;10774;42.178;26.578;2023-03-14T06:03:54;100425.56;;;1.57;88.05
21234;BME280;10774;42.178;26.578;2023-03-14T06:06:20;100433.25;;;1.71;87.31
21234;BME280;10774;42.178;26.578;2023-03-14T06:08:46;100426.50;;;1.98;86.85
21234;BME280;10774;42.178;26.578;2023-03-14T06:11:11;100441.00;;;2.20;84.39
21234;BME280;10774;42.178;26.578;2023-03-14T06:13:36;100429.66;;;2.15;83.38
21234;BME280;10774;42.178;26.578;2023-03-14T06:16:02;100426.63;;;1.92;87.19
21234;BME280;10774;42.178;26.578;2023-03-14T06:18:27;100435.00;;;2.14;87.51
21234;BME280;10774;42.178;26.578;2023-03-14T06:20:54;100417.94;;;2.27;87.61
21234;BME280;10774;42.178;26.578;2023-03-14T06:23:20;100419.69;;;2.65;84.73
21234;BME280;10774;42.178;26.578;2023-03-14T06:25:46;100411.25;;;2.48;84.98
21234;BME280;10774;42.178;26.578;2023-03-14T06:28:11;100414.03;;;2.43;85.37
21234;BME280;10774;42.178;26.578;2023-03-14T06:30:37;100425.41;;;2.47;85.10
21234;BME280;10774;42.178;26.578;2023-03-14T06:33:02;100419.91;;;2.56;85.22
21234;BME280;10774;42.178;26.578;2023-03-14T06:35:27;100431.81;;;2.75;84.29
21234;BME280;10774;42.178;26.578;2023-03-14T06:37:53;100432.69;;;3.10;83.15
21234;BME280;10774;42.178;26.578;2023-03-14T06:40:19;100430.00;;;3.46;81.41
21234;BME280;10774;42.178;26.578;2023-03-14T06:42:45;100434.53;;;3.73;80.14
21234;BME280;10774;42.178;26.578;2023-03-14T06:45:10;100432.00;;;4.00;78.37
21234;BME280;10774;42.178;26.578;2023-03-14T06:47:36;100432.28;;;3.90;78.51
21234;BME280;10774;42.178;26.578;2023-03-14T06:50:04;100421.56;;;3.64;80.22
21234;BME280;10774;42.178;26.578;2023-03-14T06:52:29;100424.03;;;3.70;80.24
21234;BME280;10774;42.178;26.578;2023-03-14T06:54:55;100421.63;;;3.28;80.98
21234;BME280;10774;42.178;26.578;2023-03-14T06:57:20;100409.56;;;3.49;82.19
21234;BME280;10774;42.178;26.578;2023-03-14T06:59:45;100395.94;;;3.92;80.61
21234;BME280;10774;42.178;26.578;2023-03-14T07:02:12;100391.25;;;4.30;78.48
21234;BME280;10774;42.178;26.578;2023-03-14T07:04:38;100394.88;;;4.56;76.80
21234;BME280;10774;42.178;26.578;2023-03-14T07:07:03;100392.13;;;4.85;74.97
21234;BME280;10774;42.178;26.578;2023-03-14T07:09:29;100377.47;;;4.98;72.70
21234;BME280;10774;42.178;26.578;2023-03-14T07:11:54;100381.41;;;4.32;76.58
21234;BME280;10774;42.178;26.578;2023-03-14T07:14:20;100373.13;;;4.15;78.53
21234;BME280;10774;42.178;26.578;2023-03-14T07:16:45;100372.16;;;4.17;80.03
21234;BME280;10774;42.178;26.578;2023-03-14T07:19:11;100395.31;;;3.52;84.95
21234;BME280;10774;42.178;26.578;2023-03-14T07:21:36;100383.75;;;4.15;84.49
21234;BME280;10774;42.178;26.578;2023-03-14T07:24:02;100379.00;;;4.53;81.69
21234;BME280;10774;42.178;26.578;2023-03-14T07:26:27;100369.22;;;4.81;80.45
21234;BME280;10774;42.178;26.578;2023-03-14T07:28:53;100374.22;;;4.90;79.14
21234;BME280;10774;42.178;26.578;2023-03-14T07:31:18;100372.06;;;5.02;79.02
21234;BME280;10774;42.178;26.578;2023-03-14T07:33:44;100364.28;;;4.69;79.42
21234;BME280;10774;42.178;26.578;2023-03-14T07:36:10;100370.31;;;5.01;81.05
21234;BME280;10774;42.178;26.578;2023-03-14T07:38:35;100359.44;;;4.82;83.47
21234;BME280;10774;42.178;26.578;2023-03-14T07:41:05;100370.09;;;5.57;81.56
21234;BME280;10774;42.178;26.578;2023-03-14T07:43:31;100375.88;;;5.44;81.27
21234;BME280;10774;42.178;26.578;2023-03-14T07:45:57;100357.13;;;5.47;80.52
21234;BME280;10774;42.178;26.578;2023-03-14T07:48:23;100357.47;;;5.85;78.76
21234;BME280;10774;42.178;26.578;2023-03-14T07:50:53;100370.88;;;6.31;76.02
21234;BME280;10774;42.178;26.578;2023-03-14T07:53:20;100354.13;;;5.32;80.41
21234;BME280;10774;42.178;26.578;2023-03-14T07:55:45;100347.88;;;5.58;82.73
21234;BME280;10774;42.178;26.578;2023-03-14T07:58:11;100350.22;;;6.36;79.51
21234;BME280;10774;42.178;26.578;2023-03-14T08:00:37;100358.16;;;6.37;76.81
21234;BME280;10774;42.178;26.578;2023-03-14T08:03:03;100358.19;;;5.90;79.24
21234;BME280;10774;42.178;26.578;2023-03-14T08:05:28;100358.13;;;6.15;79.56
21234;BME280;10774;42.178;26.578;2023-03-14T08:07:54;100327.91;;;6.60;77.14
21234;BME280;10774;42.178;26.578;2023-03-14T08:10:19;100349.09;;;6.63;75.31
21234;BME280;10774;42.178;26.578;2023-03-14T08:12:53;100333.09;;;6.41;78.00
21234;BME280;10774;42.178;26.578;2023-03-14T08:15:19;100328.56;;;7.07;75.01
21234;BME280;10774;42.178;26.578;2023-03-14T08:17:45;100322.34;;;6.44;74.50
21234;BME280;10774;42.178;26.578;2023-03-14T08:20:11;100332.47;;;6.57;77.59
21234;BME280;10774;42.178;26.578;2023-03-14T08:22:37;100315.72;;;6.53;76.39
21234;BME280;10774;42.178;26.578;2023-03-14T08:25:03;100332.78;;;7.12;73.08
21234;BME280;10774;42.178;26.578;2023-03-14T08:27:29;100330.66;;;7.40;69.22
21234;BME280;10774;42.178;26.578;2023-03-14T08:29:54;100308.69;;;7.73;66.87
21234;BME280;10774;42.178;26.578;2023-03-14T08:32:19;100308.50;;;7.96;64.18
21234;BME280;10774;42.178;26.578;2023-03-14T08:34:45;100312.50;;;8.24;64.25
21234;BME280;10774;42.178;26.578;2023-03-14T08:37:11;100301.34;;;7.97;61.57
21234;BME280;10774;42.178;26.578;2023-03-14T08:39:36;100306.44;;;8.01;61.28
21234;BME280;10774;42.178;26.578;2023-03-14T08:42:02;100300.59;;;7.55;62.98
21234;BME280;10774;42.178;26.578;2023-03-14T08:44:27;100301.22;;;7.42;62.56
21234;BME280;10774;42.178;26.578;2023-03-14T08:46:53;100292.00;;;7.68;61.60
21234;BME280;10774;42.178;26.578;2023-03-14T08:49:18;100296.28;;;8.27;59.83
21234;BME280;10774;42.178;26.578;2023-03-14T08:51:43;100288.69;;;8.55;56.22
21234;BME280;10774;42.178;26.578;2023-03-14T08:54:10;100296.50;;;8.77;55.21
21234;BME280;10774;42.178;26.578;2023-03-14T08:56:36;100282.72;;;8.85;54.61
21234;BME280;10774;42.178;26.578;2023-03-14T08:59:03;100280.03;;;9.02;52.34
21234;BME280;10774;42.178;26.578;2023-03-14T09:01:28;100275.66;;;9.34;52.24
21234;BME280;10774;42.178;26.578;2023-03-14T09:03:54;100275.81;;;9.31;49.76
21234;BME280;10774;42.178;26.578;2023-03-14T09:06:19;100275.13;;;9.43;50.75
21234;BME280;10774;42.178;26.578;2023-03-14T09:08:45;100274.59;;;9.70;49.03
21234;BME280;10774;42.178;26.578;2023-03-14T09:11:11;100264.22;;;9.80;47.99
21234;BME280;10774;42.178;26.578;2023-03-14T09:13:37;100260.69;;;10.11;46.70
21234;BME280;10774;42.178;26.578;2023-03-14T09:16:02;100250.66;;;10.14;47.10
21234;BME280;10774;42.178;26.578;2023-03-14T09:18:28;100257.03;;;10.12;45.55
21234;BME280;10774;42.178;26.578;2023-03-14T09:20:55;100267.28;;;9.40;43.96
21234;BME280;10774;42.178;26.578;2023-03-14T09:23:20;100243.94;;;9.42;45.22
21234;BME280;10774;42.178;26.578;2023-03-14T09:25:46;100259.97;;;9.44;45.84
21234;BME280;10774;42.178;26.578;2023-03-14T09:28:11;100245.81;;;9.74;45.18
21234;BME280;10774;42.178;26.578;2023-03-14T09:30:37;100236.47;;;10.44;42.82
21234;BME280;10774;42.178;26.578;2023-03-14T09:33:02;100229.94;;;10.78;40.68
21234;BME280;10774;42.178;26.578;2023-03-14T09:35:28;100233.91;;;11.15;39.88
21234;BME280;10774;42.178;26.578;2023-03-14T09:37:53;100229.09;;;11.06;39.46
21234;BME280;10774;42.178;26.578;2023-03-14T09:40:19;100222.69;;;10.64;39.32
21234;BME280;10774;42.178;26.578;2023-03-14T09:42:50;100197.72;;;10.48;39.08
21234;BME280;10774;42.178;26.578;2023-03-14T09:45:44;100225.72;;;10.44;39.51
21234;BME280;10774;42.178;26.578;2023-03-14T09:48:15;100210.19;;;9.56;40.53
21234;BME280;10774;42.178;26.578;2023-03-14T09:50:53;100212.25;;;10.14;40.07
21234;BME280;10774;42.178;26.578;2023-03-14T09:53:24;100210.88;;;10.83;39.31
21234;BME280;10774;42.178;26.578;2023-03-14T09:55:51;100192.66;;;11.16;39.23
21234;BME280;10774;42.178;26.578;2023-03-14T09:58:23;100194.00;;;11.52;39.25
21234;BME280;10774;42.178;26.578;2023-03-14T10:00:50;100175.34;;;11.63;36.43
21234;BME280;10774;42.178;26.578;2023-03-14T10:03:29;100187.38;;;11.00;35.47
21234;BME280;10774;42.178;26.578;2023-03-14T10:05:56;100180.00;;;11.18;36.22
21234;BME280;10774;42.178;26.578;2023-03-14T10:08:22;100164.59;;;11.63;36.75
21234;BME280;10774;42.178;26.578;2023-03-14T10:10:47;100166.75;;;12.12;37.22
21234;BME280;10774;42.178;26.578;2023-03-14T10:13:24;100165.28;;;12.21;35.92
21234;BME280;10774;42.178;26.578;2023-03-14T10:15:59;100165.25;;;12.08;36.62
21234;BME280;10774;42.178;26.578;2023-03-14T10:18:24;100158.25;;;12.58;37.35
21234;BME280;10774;42.178;26.578;2023-03-14T10:23:32;100157.06;;;13.39;36.86
21234;BME280;10774;42.178;26.578;2023-03-14T10:28:28;100133.66;;;13.39;35.36
21234;BME280;10774;42.178;26.578;2023-03-14T10:30:55;100135.97;;;13.32;34.21
21234;BME280;10774;42.178;26.578;2023-03-14T10:33:23;100118.00;;;13.57;34.93
21234;BME280;10774;42.178;26.578;2023-03-14T10:35:54;100124.84;;;13.50;35.18
21234;BME280;10774;42.178;26.578;2023-03-14T10:38:22;100108.88;;;13.47;34.41
21234;BME280;10774;42.178;26.578;2023-03-14T10:40:50;100101.66;;;13.71;35.33
21234;BME280;10774;42.178;26.578;2023-03-14T10:43:44;100104.94;;;13.88;34.95
21234;BME280;10774;42.178;26.578;2023-03-14T10:46:14;100095.63;;;13.68;34.70
21234;BME280;10774;42.178;26.578;2023-03-14T10:48:41;100078.91;;;13.86;35.32
21234;BME280;10774;42.178;26.578;2023-03-14T10:53:49;100077.69;;;14.15;34.95
21234;BME280;10774;42.178;26.578;2023-03-14T10:56:19;100054.50;;;14.23;33.41
21234;BME280;10774;42.178;26.578;2023-03-14T10:58:47;100068.63;;;14.51;33.28
21234;BME280;10774;42.178;26.578;2023-03-14T11:03:48;100035.75;;;14.44;33.65
21234;BME280;10774;42.178;26.578;2023-03-14T11:06:31;100057.94;;;14.14;32.24
21234;BME280;10774;42.178;26.578;2023-03-14T11:09:11;100036.28;;;13.44;33.02
21234;BME280;10774;42.178;26.578;2023-03-14T11:11:40;100021.34;;;13.27;32.66
21234;BME280;10774;42.178;26.578;2023-03-14T11:14:27;100031.09;;;13.04;34.03
21234;BME280;10774;42.178;26.578;2023-03-14T11:22:20;99999.72;;;12.15;35.05
21234;BME280;10774;42.178;26.578;2023-03-14T11:33:42;99980.03;;;13.02;33.08
21234;BME280;10774;42.178;26.578;2023-03-14T11:36:21;99974.50;;;13.41;32.66
21234;BME280;10774;42.178;26.578;2023-03-14T11:38:51;99960.94;;;13.89;32.28
21234;BME280;10774;42.178;26.578;2023-03-14T11:41:23;99957.69;;;14.19;31.77
21234;BME280;10774;42.178;26.578;2023-03-14T11:43:58;99945.91;;;14.42;31.53
21234;BME280;10774;42.178;26.578;2023-03-14T11:46:32;99933.03;;;14.46;31.58
21234;BME280;10774;42.178;26.578;2023-03-14T11:51:39;99933.66;;;14.60;31.25
21234;BME280;10774;42.178;26.578;2023-03-14T11:56:55;99918.56;;;14.69;31.78
21234;BME280;10774;42.178;26.578;2023-03-14T12:02:20;99906.03;;;15.11;30.28
21234;BME280;10774;42.178;26.578;2023-03-14T12:07:21;99891.84;;;15.83;29.57
21234;BME280;10774;42.178;26.578;2023-03-14T12:09:50;99889.75;;;15.66;29.55
21234;BME280;10774;42.178;26.578;2023-03-14T12:12:21;99875.06;;;15.89;28.59
21234;BME280;10774;42.178;26.578;2023-03-14T12:14:57;99860.16;;;15.74;28.84
21234;BME280;10774;42.178;26.578;2023-03-14T12:17:27;99854.72;;;16.26;28.44
21234;BME280;10774;42.178;26.578;2023-03-14T12:20:20;99845.13;;;16.62;27.03
21234;BME280;10774;42.178;26.578;2023-03-14T12:22:52;99838.31;;;16.27;28.01
21234;BME280;10774;42.178;26.578;2023-03-14T12:25:23;99834.84;;;16.65;29.06
21234;BME280;10774;42.178;26.578;2023-03-14T12:35:47;99829.19;;;17.56;27.44
21234;BME280;10774;42.178;26.578;2023-03-14T12:43:48;99808.81;;;18.53;28.00
21234;BME280;10774;42.178;26.578;2023-03-14T12:48:50;99794.66;;;18.05;28.01
21234;BME280;10774;42.178;26.578;2023-03-14T12:51:21;99797.94;;;18.53;27.74
21234;BME280;10774;42.178;26.578;2023-03-14T12:57:10;99796.22;;;19.16;26.60
21234;BME280;10774;42.178;26.578;2023-03-14T12:59:59;99787.31;;;19.05;26.66
21234;BME280;10774;42.178;26.578;2023-03-14T13:02:28;99776.97;;;19.35;25.93
21234;BME280;10774;42.178;26.578;2023-03-14T13:05:12;99787.88;;;19.35;26.10
21234;BME280;10774;42.178;26.578;2023-03-14T13:10:47;99771.28;;;19.20;26.08
21234;BME280;10774;42.178;26.578;2023-03-14T13:13:21;99755.34;;;19.25;26.69
21234;BME280;10774;42.178;26.578;2023-03-14T13:15:48;99770.91;;;19.15;26.54
21234;BME280;10774;42.178;26.578;2023-03-14T13:18:48;99761.16;;;19.56;26.22
21234;BME280;10774;42.178;26.578;2023-03-14T13:21:25;99750.22;;;20.08;26.24
21234;BME280;10774;42.178;26.578;2023-03-14T13:24:21;99745.41;;;19.94;26.17
21234;BME280;10774;42.178;26.578;2023-03-14T13:26:47;99744.94;;;20.49;25.48
21234;BME280;10774;42.178;26.578;2023-03-14T13:29:16;99739.09;;;20.36;25.59
21234;BME280;10774;42.178;26.578;2023-03-14T13:31:57;99719.66;;;20.31;24.34
21234;BME280;10774;42.178;26.578;2023-03-14T13:34:29;99719.47;;;18.68;25.92
21234;BME280;10774;42.178;26.578;2023-03-14T13:36:55;99711.88;;;19.16;25.97
21234;BME280;10774;42.178;26.578;2023-03-14T13:39:23;99703.13;;;18.50;26.45
21234;BME280;10774;42.178;26.578;2023-03-14T13:41:51;99709.75;;;19.27;25.82
21234;BME280;10774;42.178;26.578;2023-03-14T13:44:36;99708.38;;;18.79;26.99
21234;BME280;10774;42.178;26.578;2023-03-14T13:47:04;99692.00;;;18.97;26.30
21234;BME280;10774;42.178;26.578;2023-03-14T13:49:32;99692.28;;;19.30;27.34
21234;BME280;10774;42.178;26.578;2023-03-14T13:52:00;99688.28;;;20.27;26.22
21234;BME280;10774;42.178;26.578;2023-03-14T13:54:27;99663.41;;;20.30;25.43
21234;BME280;10774;42.178;26.578;2023-03-14T13:57:00;99686.34;;;20.70;24.26